Time;durP1;ratioP1;P1;durP2;ratioP2;P2;SDS_P1;SDS_P2;PMS_P1;PMS_P2;Temp;Humidity;BMP_temperature;BMP_pressure;BME280_temperature;BME280_humidity;BME280_pressure;Samples;Min_cycle;Max_cycle;Signal;HPM_P1;HPM_P2
2021/12/26 00:01:41;;;;;;;21.97;12.80;;;-5.00;99.90;;;;;;5057598;28;20573;-80
2021/12/26 00:04:13;;;;;;;19.10;12.40;;;-5.00;99.90;;;;;;5068025;28;20290;-80
2021/12/26 00:06:41;;;;;;;22.77;11.13;;;-5.00;99.90;;;;;;5065426;28;20830;-81
2021/12/26 00:09:08;;;;;;;19.73;11.37;;;-5.00;99.90;;;;;;5066107;28;20266;-80
2021/12/26 00:11:35;;;;;;;23.07;11.70;;;-5.00;99.90;;;;;;5066621;28;20279;-80
2021/12/26 00:14:02;;;;;;;16.73;10.53;;;-5.00;99.90;;;;;;5055008;28;20750;-81
2021/12/26 00:16:29;;;;;;;16.53;10.97;;;-5.00;99.90;;;;;;5065059;28;20274;-82
2021/12/26 00:18:56;;;;;;;19.10;11.80;;;-5.10;99.90;;;;;;5059502;28;20684;-79
2021/12/26 00:21:23;;;;;;;19.77;11.27;;;-5.10;99.90;;;;;;5060222;28;20218;-79
2021/12/26 00:23:53;;;;;;;16.83;10.40;;;-5.00;99.90;;;;;;5062191;28;20228;-79
2021/12/26 00:26:19;;;;;;;17.67;10.87;;;-5.10;99.90;;;;;;5068592;28;20296;-78
2021/12/26 00:28:46;;;;;;;14.37;9.90;;;-5.10;99.90;;;;;;5071781;28;20316;-80
2021/12/26 00:31:16;;;;;;;28.10;13.37;;;-5.10;99.90;;;;;;5062651;28;20258;-80
2021/12/26 00:33:43;;;;;;;26.50;15.77;;;-5.10;99.90;;;;;;5070222;28;20229;-79
2021/12/26 00:36:10;;;;;;;16.50;10.57;;;-5.20;99.90;;;;;;5064587;28;20234;-79
2021/12/26 00:38:37;;;;;;;20.20;10.17;;;-5.10;99.90;;;;;;5069752;28;20231;-79
2021/12/26 00:41:05;;;;;;;19.10;10.37;;;-5.10;99.90;;;;;;5058210;28;20262;-80
2021/12/26 00:43:32;;;;;;;15.73;9.73;;;-5.10;99.90;;;;;;5069155;28;20259;-80
2021/12/26 00:46:00;;;;;;;13.77;9.47;;;-5.10;99.90;;;;;;5064672;28;20630;-79
2021/12/26 00:48:28;;;;;;;15.97;9.60;;;-5.10;99.90;;;;;;5070128;28;20587;-79
2021/12/26 00:50:54;;;;;;;18.83;10.60;;;-5.10;99.90;;;;;;5063362;28;20230;-79
2021/12/26 00:53:22;;;;;;;15.63;9.97;;;-5.10;99.90;;;;;;5063285;28;20215;-80
2021/12/26 00:55:49;;;;;;;16.10;9.37;;;-5.10;99.90;;;;;;5070659;28;20223;-80
2021/12/26 00:58:17;;;;;;;15.33;8.70;;;-5.10;99.90;;;;;;5071506;28;20617;-79
2021/12/26 01:00:48;;;;;;;12.77;7.97;;;-5.10;99.90;;;;;;5069867;28;20224;-80
2021/12/26 01:03:16;;;;;;;12.80;7.10;;;-5.10;99.90;;;;;;5065060;28;20860;-80
2021/12/26 01:05:46;;;;;;;16.80;7.23;;;-5.20;99.90;;;;;;5071202;28;20290;-80
2021/12/26 01:08:15;;;;;;;15.47;8.20;;;-5.20;99.90;;;;;;5064443;28;20594;-80
2021/12/26 01:10:51;;;;;;;14.53;8.47;;;-5.20;99.90;;;;;;5068558;28;20227;-81
2021/12/26 01:13:30;;;;;;;15.70;8.67;;;-5.20;99.90;;;;;;5057090;28;20232;-79
2021/12/26 01:16:11;;;;;;;13.20;7.17;;;-5.20;99.90;;;;;;5068848;28;20297;-79
2021/12/26 01:18:42;;;;;;;13.97;7.30;;;-5.30;99.90;;;;;;5068446;28;20278;-80
2021/12/26 01:21:18;;;;;;;12.40;7.00;;;-5.30;99.90;;;;;;5061281;28;20295;-79
2021/12/26 01:23:50;;;;;;;11.80;6.80;;;-5.30;99.90;;;;;;5068849;28;20299;-79
2021/12/26 01:26:17;;;;;;;47.00;11.30;;;-5.40;99.90;;;;;;5065952;28;21639;-80
2021/12/26 01:28:46;;;;;;;13.53;8.17;;;-5.40;99.90;;;;;;5068818;28;20222;-79
2021/12/26 01:31:18;;;;;;;14.03;7.47;;;-5.40;99.90;;;;;;5060590;28;20913;-82
2021/12/26 01:33:45;;;;;;;47.10;10.00;;;-5.40;99.90;;;;;;5062862;28;20304;-80
2021/12/26 01:36:18;;;;;;;14.13;7.87;;;-5.40;99.90;;;;;;5066950;28;21005;-79
2021/12/26 01:39:17;;;;;;;14.10;7.80;;;-5.40;99.90;;;;;;5060031;28;20227;-81
2021/12/26 01:42:14;;;;;;;12.70;6.63;;;-5.40;99.90;;;;;;5057175;28;20225;-81
2021/12/26 01:45:17;;;;;;;57.37;11.03;;;-5.40;99.90;;;;;;5019130;28;20299;-80
2021/12/26 01:47:58;;;;;;;10.80;7.53;;;-5.30;99.90;;;;;;5056912;28;20702;-81
2021/12/26 01:50:25;;;;;;;11.03;7.00;;;-5.40;99.90;;;;;;5066189;28;20697;-78
2021/12/26 01:52:52;;;;;;;16.67;7.13;;;-5.40;99.90;;;;;;5067255;28;20661;-78
2021/12/26 01:55:25;;;;;;;13.97;6.90;;;-5.30;99.90;;;;;;5063959;28;20223;-79
2021/12/26 01:57:55;;;;;;;12.87;6.53;;;-5.40;99.90;;;;;;5066136;28;20261;-80
2021/12/26 02:00:26;;;;;;;12.50;6.47;;;-5.30;99.90;;;;;;5057857;28;20216;-80
2021/12/26 02:02:52;;;;;;;10.70;6.33;;;-5.30;99.90;;;;;;5070645;28;20253;-80
2021/12/26 02:05:20;;;;;;;12.93;6.77;;;-5.30;99.90;;;;;;5068486;28;20214;-80
2021/12/26 02:07:48;;;;;;;10.63;6.33;;;-5.30;99.90;;;;;;5068166;28;20245;-80
2021/12/26 02:10:15;;;;;;;8.67;5.70;;;-5.30;99.90;;;;;;5068914;28;20224;-80
2021/12/26 02:12:43;;;;;;;10.90;6.50;;;-5.30;99.90;;;;;;5061218;28;20289;-81
2021/12/26 02:15:10;;;;;;;11.87;6.97;;;-5.30;99.90;;;;;;5064852;28;20309;-80
2021/12/26 02:17:42;;;;;;;9.50;6.20;;;-5.30;99.90;;;;;;5068749;28;20220;-79
2021/12/26 02:20:30;;;;;;;10.93;6.17;;;-5.40;99.90;;;;;;5060822;28;20270;-79
2021/12/26 02:23:02;;;;;;;10.07;6.27;;;-5.40;99.90;;;;;;5067744;28;20267;-79
2021/12/26 02:27:30;;;;;;;11.23;6.90;;;-5.50;99.90;;;;;;5063335;28;20313;-79
2021/12/26 02:28:19;;;;;;;9.80;5.60;;;-5.40;99.90;;;;;;5079118;28;20216;-79
2021/12/26 02:30:47;;;;;;;8.93;5.83;;;-5.50;99.90;;;;;;5065098;28;20573;-79
2021/12/26 02:33:15;;;;;;;11.20;5.63;;;-5.50;99.90;;;;;;5061650;28;20311;-83
2021/12/26 02:35:44;;;;;;;9.10;5.70;;;-5.60;99.90;;;;;;5065590;28;20893;-81
2021/12/26 02:38:12;;;;;;;10.20;6.00;;;-5.60;99.90;;;;;;5065192;28;20227;-81
2021/12/26 02:40:39;;;;;;;13.17;6.30;;;-5.60;99.90;;;;;;5064961;28;20231;-81
2021/12/26 02:43:07;;;;;;;9.93;6.40;;;-5.70;99.90;;;;;;5065667;28;20320;-80
2021/12/26 02:45:34;;;;;;;12.43;5.80;;;-5.70;99.90;;;;;;5064763;28;20244;-80
2021/12/26 02:48:02;;;;;;;10.10;5.83;;;-5.70;99.90;;;;;;5068110;28;20212;-80
2021/12/26 02:50:31;;;;;;;11.63;6.17;;;-5.80;99.90;;;;;;5061974;28;20229;-80
2021/12/26 02:53:01;;;;;;;11.20;5.90;;;-5.80;99.90;;;;;;5059440;28;20207;-80
2021/12/26 02:55:28;;;;;;;10.50;5.97;;;-5.90;99.90;;;;;;5063571;28;20809;-80
2021/12/26 02:57:59;;;;;;;9.57;6.07;;;-5.90;99.90;;;;;;5065942;28;20410;-79
2021/12/26 03:00:29;;;;;;;12.70;5.83;;;-5.90;99.90;;;;;;5061595;28;20223;-80
2021/12/26 03:02:59;;;;;;;11.17;6.33;;;-6.00;99.90;;;;;;5067673;28;20307;-80
2021/12/26 03:05:35;;;;;;;15.97;6.10;;;-6.00;99.90;;;;;;5066531;28;20212;-80
2021/12/26 03:08:04;;;;;;;11.30;6.10;;;-6.10;99.90;;;;;;5056691;28;20437;-80
2021/12/26 03:10:31;;;;;;;10.33;5.87;;;-6.10;99.90;;;;;;5062987;28;20220;-80
2021/12/26 03:13:00;;;;;;;9.07;6.03;;;-6.20;99.90;;;;;;5058983;28;20771;-80
2021/12/26 03:15:29;;;;;;;11.33;6.13;;;-6.20;99.90;;;;;;5067329;28;20290;-81
2021/12/26 03:17:57;;;;;;;11.43;5.67;;;-6.20;99.90;;;;;;5066845;28;20223;-80
2021/12/26 03:20:27;;;;;;;11.20;6.07;;;-6.30;99.90;;;;;;5067317;28;20223;-80
2021/12/26 03:22:55;;;;;;;10.33;5.70;;;-6.30;99.90;;;;;;5068813;28;20216;-81
2021/12/26 03:25:24;;;;;;;9.93;5.20;;;-6.30;99.90;;;;;;5066909;28;20228;-80
2021/12/26 03:27:51;;;;;;;10.43;5.77;;;-6.30;99.90;;;;;;5068076;28;20248;-80
2021/12/26 03:30:20;;;;;;;9.20;5.20;;;-6.40;99.90;;;;;;5068054;28;20216;-80
2021/12/26 03:32:49;;;;;;;9.97;5.40;;;-6.40;99.90;;;;;;5067793;28;20251;-80
2021/12/26 03:35:16;;;;;;;12.60;5.20;;;-6.40;99.90;;;;;;5064898;28;20219;-80
2021/12/26 03:37:43;;;;;;;8.60;5.47;;;-6.40;99.90;;;;;;5062432;28;20254;-80
2021/12/26 03:40:34;;;;;;;13.07;5.93;;;-6.40;99.90;;;;;;5038351;28;20249;-81
2021/12/26 03:43:01;;;;;;;9.27;5.33;;;-6.40;99.90;;;;;;5067207;28;20223;-81
2021/12/26 03:45:28;;;;;;;13.27;5.80;;;-6.40;99.90;;;;;;5066496;28;20297;-79
2021/12/26 03:47:56;;;;;;;11.53;6.00;;;-6.40;99.90;;;;;;5067338;28;20239;-79
2021/12/26 03:50:26;;;;;;;10.53;5.97;;;-6.40;99.90;;;;;;5062395;28;20296;-79
2021/12/26 03:52:56;;;;;;;9.13;5.77;;;-6.40;99.90;;;;;;5061469;28;20219;-79
2021/12/26 03:55:24;;;;;;;11.10;4.97;;;-6.40;99.90;;;;;;5066483;28;20224;-79
2021/12/26 03:57:52;;;;;;;9.07;5.13;;;-6.40;99.90;;;;;;5066849;28;20224;-80
2021/12/26 04:00:20;;;;;;;8.50;5.67;;;-6.40;99.90;;;;;;5064888;28;20247;-80
2021/12/26 04:02:47;;;;;;;10.40;5.37;;;-6.40;99.90;;;;;;5067133;28;21001;-80
2021/12/26 04:05:15;;;;;;;10.13;4.93;;;-6.40;99.90;;;;;;5064323;28;20221;-80
2021/12/26 04:07:42;;;;;;;9.17;4.83;;;-6.40;99.90;;;;;;5062749;28;20220;-80
2021/12/26 04:10:11;;;;;;;9.03;5.03;;;-6.40;99.90;;;;;;5067140;28;20645;-80
2021/12/26 04:12:43;;;;;;;7.67;4.37;;;-6.50;99.90;;;;;;5064452;28;20258;-80
2021/12/26 04:15:15;;;;;;;6.03;4.57;;;-6.50;99.90;;;;;;5065247;28;20219;-80
2021/12/26 04:17:42;;;;;;;9.37;4.93;;;-6.50;99.90;;;;;;5066446;28;20219;-80
2021/12/26 04:20:10;;;;;;;9.60;5.27;;;-6.60;99.90;;;;;;5066150;28;20243;-80
2021/12/26 04:22:37;;;;;;;8.97;5.10;;;-6.60;99.90;;;;;;5063450;28;20239;-79
2021/12/26 04:25:04;;;;;;;8.03;4.37;;;-6.60;99.90;;;;;;5060580;28;21015;-79
2021/12/26 04:27:31;;;;;;;8.97;5.33;;;-6.70;99.90;;;;;;5063034;28;20225;-79
2021/12/26 04:29:58;;;;;;;11.73;4.57;;;-6.70;99.90;;;;;;5058366;28;20309;-79
2021/12/26 04:32:26;;;;;;;8.90;5.17;;;-6.70;99.90;;;;;;5065310;28;20327;-79
2021/12/26 04:34:53;;;;;;;7.13;4.83;;;-6.70;99.90;;;;;;5066440;28;20328;-79
2021/12/26 04:37:20;;;;;;;9.50;4.60;;;-6.80;99.90;;;;;;5063602;28;20590;-78
2021/12/26 04:39:47;;;;;;;15.80;5.23;;;-6.80;99.90;;;;;;5066572;28;20204;-79
2021/12/26 04:42:15;;;;;;;26.37;5.80;;;-6.80;99.90;;;;;;5065743;28;20662;-79
2021/12/26 04:45:00;;;;;;;7.63;4.17;;;-6.80;99.90;;;;;;5058649;28;20364;-79
2021/12/26 04:47:54;;;;;;;7.37;3.90;;;-6.80;99.90;;;;;;5067648;28;20220;-79
2021/12/26 04:50:27;;;;;;;11.30;4.60;;;-6.80;99.90;;;;;;5066178;28;20275;-78
2021/12/26 04:52:58;;;;;;;7.77;5.00;;;-6.80;99.90;;;;;;5061549;28;20315;-78
2021/12/26 04:55:28;;;;;;;7.23;4.30;;;-6.80;99.90;;;;;;5060254;28;20226;-79
2021/12/26 04:57:56;;;;;;;8.20;4.27;;;-6.70;99.90;;;;;;5065237;28;20754;-80
2021/12/26 05:00:26;;;;;;;6.90;4.53;;;-6.80;99.90;;;;;;5063453;28;20250;-79
2021/12/26 05:02:55;;;;;;;7.30;4.00;;;-6.80;99.90;;;;;;5081854;28;20637;-80
2021/12/26 05:05:22;;;;;;;8.70;5.00;;;-6.80;99.90;;;;;;5067132;28;20397;-79
2021/12/26 05:07:49;;;;;;;5.60;4.20;;;-6.80;99.90;;;;;;5060675;28;20227;-79
2021/12/26 05:10:18;;;;;;;6.70;4.30;;;-6.90;99.90;;;;;;5067412;28;20246;-79
2021/12/26 05:12:46;;;;;;;11.07;4.57;;;-6.90;99.90;;;;;;5068795;28;20779;-80
2021/12/26 05:15:16;;;;;;;9.80;5.00;;;-6.90;99.90;;;;;;5065478;28;20707;-80
2021/12/26 05:17:43;;;;;;;7.73;4.90;;;-6.90;99.90;;;;;;5069322;28;20227;-80
2021/12/26 05:20:13;;;;;;;7.70;4.50;;;-6.90;99.90;;;;;;5068379;28;20683;-78
2021/12/26 05:22:41;;;;;;;10.07;4.80;;;-6.90;99.90;;;;;;5069332;28;20239;-79
2021/12/26 05:25:09;;;;;;;28.40;6.00;;;-6.80;99.90;;;;;;5069975;28;20653;-80
2021/12/26 05:27:36;;;;;;;10.00;4.90;;;-6.90;99.90;;;;;;5066844;28;20533;-80
2021/12/26 05:30:05;;;;;;;9.23;4.77;;;-6.90;99.90;;;;;;5067624;28;20225;-80
2021/12/26 05:32:32;;;;;;;8.43;4.40;;;-6.90;99.90;;;;;;5066812;28;20229;-80
2021/12/26 05:35:00;;;;;;;40.73;7.17;;;-6.90;99.90;;;;;;5069886;28;20216;-80
2021/12/26 05:37:28;;;;;;;7.27;3.97;;;-6.90;99.90;;;;;;5069215;28;20585;-80
2021/12/26 05:39:56;;;;;;;12.73;4.37;;;-6.90;99.90;;;;;;5067649;28;20596;-81
2021/12/26 05:42:23;;;;;;;14.63;4.80;;;-6.90;99.90;;;;;;5064680;28;20212;-81
2021/12/26 05:44:50;;;;;;;9.97;4.60;;;-6.90;99.90;;;;;;5062464;28;20220;-80
2021/12/26 05:47:17;;;;;;;79.90;10.87;;;-6.80;99.90;;;;;;5066605;28;20219;-79
2021/12/26 05:49:53;;;;;;;9.27;4.80;;;-6.80;99.90;;;;;;5068225;28;20659;-79
2021/12/26 05:52:20;;;;;;;7.03;4.13;;;-6.70;99.90;;;;;;5082894;28;20515;-79
2021/12/26 05:54:56;;;;;;;8.63;4.30;;;-6.70;99.90;;;;;;5067581;28;20315;-79
2021/12/26 05:57:22;;;;;;;6.57;3.93;;;-6.70;99.90;;;;;;5068297;28;20302;-78
2021/12/26 05:59:49;;;;;;;32.63;6.33;;;-6.70;99.90;;;;;;5062859;28;20227;-78
2021/12/26 06:02:17;;;;;;;7.37;3.90;;;-6.70;99.90;;;;;;5068185;28;20227;-79
2021/12/26 06:04:45;;;;;;;6.10;4.23;;;-6.70;99.90;;;;;;5067351;28;20598;-78
2021/12/26 06:07:14;;;;;;;6.50;3.67;;;-6.70;99.90;;;;;;5064351;28;20306;-78
2021/12/26 06:09:41;;;;;;;9.23;4.40;;;-6.70;99.90;;;;;;5067523;28;20269;-79
2021/12/26 06:12:10;;;;;;;7.37;4.00;;;-6.70;99.90;;;;;;5060709;28;20249;-82
2021/12/26 06:14:37;;;;;;;6.40;3.87;;;-6.70;99.90;;;;;;5066037;28;20209;-82
2021/12/26 06:17:05;;;;;;;7.47;3.40;;;-6.70;99.90;;;;;;5065794;28;20289;-82
2021/12/26 06:20:00;;;;;;;7.63;3.70;;;-6.70;99.90;;;;;;5069754;28;20224;-83
2021/12/26 06:22:30;;;;;;;7.87;4.17;;;-6.80;99.90;;;;;;5063707;28;20311;-81
2021/12/26 06:25:17;;;;;;;17.47;5.00;;;-6.80;99.90;;;;;;5060165;28;20232;-81
2021/12/26 06:27:57;;;;;;;4.43;3.30;;;-6.80;99.90;;;;;;5059855;28;20720;-81
2021/12/26 06:30:47;;;;;;;5.30;3.40;;;-6.80;99.90;;;;;;5068041;28;20224;-81
2021/12/26 06:33:33;;;;;;;7.63;3.73;;;-6.80;99.90;;;;;;5067783;28;20226;-81
2021/12/26 06:36:19;;;;;;;5.63;3.57;;;-6.80;99.90;;;;;;5067111;28;20231;-81
2021/12/26 06:39:05;;;;;;;23.80;4.70;;;-6.70;99.90;;;;;;5069724;28;20242;-81
2021/12/26 06:42:00;;;;;;;6.83;3.80;;;-6.70;99.90;;;;;;5066931;28;20207;-80
2021/12/26 06:44:41;;;;;;;6.70;3.50;;;-6.70;99.90;;;;;;5068134;28;20623;-82
2021/12/26 06:47:15;;;;;;;88.63;8.83;;;-6.60;99.90;;;;;;5066677;28;20274;-80
2021/12/26 06:49:47;;;;;;;6.77;3.50;;;-6.60;99.90;;;;;;5064177;28;20725;-81
2021/12/26 06:52:13;;;;;;;7.90;3.27;;;-6.70;99.90;;;;;;5065182;28;20252;-81
2021/12/26 06:54:41;;;;;;;5.47;3.70;;;-6.70;99.90;;;;;;5062068;28;20215;-81
2021/12/26 06:57:08;;;;;;;6.70;3.40;;;-6.70;99.90;;;;;;5065706;28;20256;-81
2021/12/26 06:59:35;;;;;;;5.97;3.37;;;-6.70;99.90;;;;;;5061922;28;20247;-81
2021/12/26 07:02:03;;;;;;;19.07;4.47;;;-6.70;99.90;;;;;;5066208;28;20214;-81
2021/12/26 07:04:47;;;;;;;5.77;3.87;;;-6.80;99.90;;;;;;5062817;28;20219;-81
2021/12/26 07:07:15;;;;;;;8.30;3.60;;;-6.80;99.90;;;;;;5068069;28;20223;-81
2021/12/26 07:09:43;;;;;;;6.63;3.53;;;-6.80;99.90;;;;;;5066400;28;20208;-81
2021/12/26 07:12:11;;;;;;;5.57;3.63;;;-6.80;99.90;;;;;;5068010;28;20215;-81
2021/12/26 07:14:49;;;;;;;6.10;3.40;;;-6.80;99.90;;;;;;5059335;28;20225;-81
2021/12/26 07:17:17;;;;;;;14.43;4.00;;;-6.80;99.90;;;;;;5062715;28;20712;-81
2021/12/26 07:19:48;;;;;;;7.37;3.80;;;-6.90;99.90;;;;;;5060747;28;20277;-81
2021/12/26 07:22:35;;;;;;;5.87;3.70;;;-6.90;99.90;;;;;;5066863;28;20211;-81
2021/12/26 07:25:03;;;;;;;6.07;3.40;;;-7.00;99.90;;;;;;5061983;28;20224;-81
2021/12/26 07:27:30;;;;;;;9.53;3.87;;;-7.00;99.90;;;;;;5062182;28;20778;-81
2021/12/26 07:30:19;;;;;;;6.77;3.80;;;-7.00;99.90;;;;;;5064553;28;20225;-82
2021/12/26 07:32:48;;;;;;;6.53;3.97;;;-7.00;99.90;;;;;;5082382;28;20223;-83
2021/12/26 07:35:15;;;;;;;9.77;3.60;;;-7.00;99.90;;;;;;5059615;28;20442;-81
2021/12/26 07:37:42;;;;;;;69.77;14.10;;;-7.00;99.90;;;;;;5059654;28;20582;-81
2021/12/26 07:40:11;;;;;;;329.13;32.30;;;-7.00;99.90;;;;;;5054579;28;20774;-82
2021/12/26 07:42:40;;;;;;;6.57;3.53;;;-6.90;99.90;;;;;;5051865;28;20340;-78
2021/12/26 07:45:36;;;;;;;8.70;4.43;;;-6.90;99.90;;;;;;5019035;28;20236;-79
2021/12/26 07:48:12;;;;;;;35.33;6.13;;;-6.90;99.90;;;;;;5062489;28;20554;-80
2021/12/26 07:50:39;;;;;;;21.60;5.03;;;-6.90;99.90;;;;;;5060866;28;20266;-81
2021/12/26 07:53:24;;;;;;;37.37;6.40;;;-6.90;99.90;;;;;;5055206;28;20401;-81
2021/12/26 07:56:23;;;;;;;11.83;4.30;;;-6.90;99.90;;;;;;5059643;28;20240;-79
2021/12/26 07:59:09;;;;;;;77.10;10.07;;;-6.90;99.90;;;;;;5060191;28;20226;-79
2021/12/26 08:02:05;;;;;;;5.93;4.10;;;-6.90;99.90;;;;;;5028154;28;20253;-79
2021/12/26 08:04:59;;;;;;;11.10;4.27;;;-6.80;99.90;;;;;;5056364;28;20625;-78
2021/12/26 08:07:38;;;;;;;9.37;4.00;;;-6.80;99.90;;;;;;5060663;28;20222;-78
2021/12/26 08:10:06;;;;;;;8.00;4.07;;;-6.80;99.90;;;;;;5063393;28;20221;-78
2021/12/26 08:12:33;;;;;;;7.20;4.13;;;-6.70;99.90;;;;;;5064257;28;20914;-79
2021/12/26 08:15:01;;;;;;;8.40;4.40;;;-6.70;99.90;;;;;;5060698;28;20825;-78
2021/12/26 08:17:28;;;;;;;7.47;4.27;;;-6.70;99.90;;;;;;5060152;28;20212;-78
2021/12/26 08:19:55;;;;;;;8.07;4.60;;;-6.60;99.90;;;;;;5057160;28;20229;-78
2021/12/26 08:22:23;;;;;;;8.27;4.97;;;-6.60;99.90;;;;;;5060859;28;20220;-79
2021/12/26 08:24:50;;;;;;;28.80;6.20;;;-6.50;99.90;;;;;;5065774;28;20589;-79
2021/12/26 08:27:17;;;;;;;7.90;4.70;;;-6.40;99.90;;;;;;5067486;28;20575;-78
2021/12/26 08:29:44;;;;;;;9.60;4.97;;;-6.10;99.90;;;;;;5064118;28;20220;-79
2021/12/26 08:32:13;;;;;;;6.33;4.30;;;-5.70;99.90;;;;;;5066513;28;20290;-79
2021/12/26 08:34:40;;;;;;;7.70;4.40;;;-5.20;99.90;;;;;;5066329;28;20262;-79
2021/12/26 08:37:07;;;;;;;95.23;10.63;;;-4.60;99.90;;;;;;5064636;28;20219;-79
2021/12/26 08:39:38;;;;;;;15.33;4.87;;;-3.90;99.90;;;;;;5063847;28;20306;-79
2021/12/26 08:42:06;;;;;;;5.47;4.07;;;-3.30;99.90;;;;;;5067081;28;20600;-79
2021/12/26 08:44:34;;;;;;;9.53;4.03;;;-2.60;99.90;;;;;;5070348;28;20303;-79
2021/12/26 08:47:01;;;;;;;7.03;3.90;;;-2.00;99.90;;;;;;5069772;28;20703;-79
2021/12/26 08:49:28;;;;;;;5.30;3.63;;;-1.40;99.90;;;;;;5070444;28;20228;-79
2021/12/26 08:51:55;;;;;;;7.13;4.53;;;-0.80;99.90;;;;;;5069375;28;20218;-79
2021/12/26 08:54:23;;;;;;;6.30;3.80;;;-0.20;99.90;;;;;;5069040;28;20225;-79
2021/12/26 08:56:52;;;;;;;5.03;3.43;;;0.30;99.90;;;;;;5062288;28;20215;-81
2021/12/26 08:59:19;;;;;;;8.43;4.00;;;0.90;99.90;;;;;;5066174;28;20233;-79
2021/12/26 09:01:46;;;;;;;9.00;3.67;;;1.30;99.90;;;;;;5064839;28;20235;-79
2021/12/26 09:04:13;;;;;;;7.20;4.17;;;1.70;99.70;;;;;;5059790;28;20216;-79
2021/12/26 09:06:40;;;;;;;7.53;3.30;;;2.10;99.40;;;;;;5069657;28;20235;-79
2021/12/26 09:09:08;;;;;;;5.33;3.27;;;2.50;99.10;;;;;;5064006;28;20216;-79
2021/12/26 09:11:35;;;;;;;4.60;3.27;;;2.80;98.80;;;;;;5065655;28;20226;-79
2021/12/26 09:14:03;;;;;;;4.97;3.67;;;3.10;98.20;;;;;;5070412;28;20715;-79
2021/12/26 09:16:33;;;;;;;5.37;3.00;;;3.40;97.70;;;;;;5062991;28;20298;-79
2021/12/26 09:19:01;;;;;;;4.37;2.83;;;3.60;97.70;;;;;;5070986;28;20273;-79
2021/12/26 09:21:27;;;;;;;5.03;3.50;;;3.90;97.50;;;;;;5064500;28;20218;-79
2021/12/26 09:23:54;;;;;;;17.43;11.00;;;4.10;97.20;;;;;;5066698;28;20325;-79
2021/12/26 09:26:21;;;;;;;16.43;10.97;;;4.40;97.10;;;;;;5064537;28;20702;-79
2021/12/26 09:28:48;;;;;;;7.63;4.70;;;4.60;96.80;;;;;;5064352;28;20308;-79
2021/12/26 09:31:16;;;;;;;5.77;3.50;;;4.80;96.60;;;;;;5066056;28;20231;-79
2021/12/26 09:33:42;;;;;;;6.07;3.63;;;4.90;96.20;;;;;;5069228;28;20577;-79
2021/12/26 09:36:09;;;;;;;3.43;3.00;;;5.20;96.20;;;;;;5069676;28;20240;-80
2021/12/26 09:38:36;;;;;;;5.60;2.83;;;5.30;95.80;;;;;;5067517;28;20722;-80
2021/12/26 09:41:03;;;;;;;3.97;2.87;;;5.50;95.80;;;;;;5070481;28;20213;-79
2021/12/26 09:43:29;;;;;;;4.03;3.10;;;5.70;94.80;;;;;;5068590;28;20251;-79
2021/12/26 09:45:56;;;;;;;4.37;3.00;;;5.80;94.50;;;;;;5067533;28;20748;-79
2021/12/26 09:48:24;;;;;;;3.77;2.50;;;5.90;94.50;;;;;;5063562;28;20276;-80
2021/12/26 09:50:51;;;;;;;4.27;2.90;;;6.00;93.10;;;;;;5062155;28;20253;-79
2021/12/26 09:53:18;;;;;;;3.40;2.47;;;6.00;93.20;;;;;;5065771;28;20233;-79
2021/12/26 09:55:44;;;;;;;4.47;2.90;;;6.00;93.20;;;;;;5068976;28;20224;-80
2021/12/26 09:58:11;;;;;;;5.77;2.63;;;6.00;93.40;;;;;;5068144;28;20230;-79
2021/12/26 10:00:40;;;;;;;4.20;2.47;;;6.00;93.70;;;;;;5062171;28;20223;-79
2021/12/26 10:03:14;;;;;;;4.13;2.80;;;6.00;92.80;;;;;;5060124;28;20314;-79
2021/12/26 10:06:06;;;;;;;4.60;2.50;;;6.00;93.00;;;;;;5059702;28;20224;-79
2021/12/26 10:08:36;;;;;;;3.20;2.43;;;6.10;93.00;;;;;;5064516;28;20236;-79
2021/12/26 10:11:07;;;;;;;5.50;3.27;;;6.20;93.20;;;;;;5059362;28;20691;-80
2021/12/26 10:13:39;;;;;;;2.90;2.23;;;6.10;92.40;;;;;;5067925;28;20312;-79
2021/12/26 10:16:06;;;;;;;2.87;2.30;;;6.10;90.60;;;;;;5066299;28;20225;-79
2021/12/26 10:18:39;;;;;;;4.33;2.70;;;6.00;88.20;;;;;;5065449;28;20225;-79
2021/12/26 10:21:22;;;;;;;4.30;2.73;;;5.80;90.10;;;;;;5063934;28;20299;-79
2021/12/26 10:23:49;;;;;;;4.43;2.80;;;5.70;91.00;;;;;;5064901;28;20595;-80
2021/12/26 10:26:20;;;;;;;4.73;2.87;;;5.60;92.50;;;;;;5056024;28;20231;-79
2021/12/26 10:29:05;;;;;;;4.73;3.30;;;5.60;92.00;;;;;;5059130;28;20224;-79
2021/12/26 10:31:32;;;;;;;4.57;3.10;;;5.60;91.70;;;;;;5063652;28;20242;-79
2021/12/26 10:33:59;;;;;;;4.30;2.90;;;5.70;93.10;;;;;;5060112;28;20584;-79
2021/12/26 10:36:44;;;;;;;3.43;2.53;;;5.80;92.50;;;;;;5066052;28;21009;-79
2021/12/26 10:39:17;;;;;;;4.53;3.03;;;5.90;91.50;;;;;;5061045;28;20590;-79
2021/12/26 10:41:46;;;;;;;3.60;2.40;;;6.10;92.30;;;;;;5066388;28;20218;-79
2021/12/26 10:44:23;;;;;;;4.07;2.50;;;6.10;91.70;;;;;;5061788;28;20230;-79
2021/12/26 10:46:52;;;;;;;4.50;3.20;;;6.30;91.90;;;;;;5067198;28;20611;-79
2021/12/26 10:49:23;;;;;;;3.93;2.67;;;6.30;92.30;;;;;;5067100;28;20210;-79
2021/12/26 10:51:51;;;;;;;13.53;8.80;;;6.40;91.70;;;;;;5064713;28;20240;-80
2021/12/26 10:54:20;;;;;;;4.07;3.13;;;6.50;92.60;;;;;;5064941;28;20812;-80
2021/12/26 10:57:02;;;;;;;5.63;2.70;;;6.60;92.50;;;;;;5069267;28;20530;-79
2021/12/26 10:59:29;;;;;;;3.80;2.37;;;6.60;92.00;;;;;;5063809;28;20313;-79
2021/12/26 11:01:56;;;;;;;5.10;2.70;;;6.70;92.40;;;;;;5065275;28;20221;-79
2021/12/26 11:04:23;;;;;;;5.40;3.33;;;6.80;92.10;;;;;;5054240;28;20303;-79
2021/12/26 11:07:08;;;;;;;3.93;2.77;;;6.90;92.30;;;;;;5065667;28;20232;-80
2021/12/26 11:09:35;;;;;;;3.30;2.40;;;6.90;91.70;;;;;;5062473;28;20232;-79
2021/12/26 11:12:05;;;;;;;3.80;2.43;;;7.00;92.20;;;;;;5064680;28;20248;-79
2021/12/26 11:14:33;;;;;;;3.87;2.60;;;6.90;91.30;;;;;;5059281;28;20233;-79
2021/12/26 11:17:00;;;;;;;3.43;2.43;;;7.00;91.80;;;;;;5063540;28;20322;-80
2021/12/26 11:19:43;;;;;;;4.33;2.60;;;6.90;91.90;;;;;;5060497;28;20224;-80
2021/12/26 11:22:11;;;;;;;3.23;2.23;;;6.90;91.30;;;;;;5057260;28;20263;-79
2021/12/26 11:24:39;;;;;;;3.10;2.30;;;6.90;91.30;;;;;;5062986;28;20357;-79
2021/12/26 11:27:07;;;;;;;4.00;2.70;;;6.90;90.80;;;;;;5064411;28;20230;-79
2021/12/26 11:29:34;;;;;;;3.53;3.00;;;6.80;90.60;;;;;;5051180;28;20695;-79
2021/12/26 11:32:01;;;;;;;3.63;2.50;;;6.70;91.40;;;;;;5057423;28;20222;-79
2021/12/26 11:34:32;;;;;;;4.17;2.27;;;6.70;91.20;;;;;;5062858;28;20229;-79
2021/12/26 11:36:59;;;;;;;3.43;1.97;;;6.70;91.00;;;;;;5055342;28;20229;-80
2021/12/26 11:39:48;;;;;;;4.27;2.63;;;6.70;90.80;;;;;;5061526;28;20714;-80
2021/12/26 11:43:09;;;;;;;3.93;2.70;;;6.70;91.00;;;;;;5055238;28;20243;-80
2021/12/26 11:46:03;;;;;;;4.87;2.40;;;6.60;89.40;;;;;;5064623;28;20226;-79
2021/12/26 11:49:12;;;;;;;3.73;2.57;;;6.70;90.70;;;;;;5062413;28;20369;-80
2021/12/26 11:52:35;;;;;;;3.57;2.40;;;6.60;90.40;;;;;;5027093;28;20222;-80
2021/12/26 11:55:33;;;;;;;6.20;2.50;;;6.70;90.80;;;;;;5058247;28;20616;-80
2021/12/26 11:58:32;;;;;;;3.17;2.30;;;6.80;91.10;;;;;;5063267;28;20220;-80
2021/12/26 12:01:00;;;;;;;4.07;2.80;;;6.80;90.70;;;;;;5036991;28;20282;-79
2021/12/26 12:03:31;;;;;;;3.70;2.90;;;6.80;91.20;;;;;;5062731;28;21021;-80
2021/12/26 12:05:59;;;;;;;3.30;2.33;;;6.80;90.50;;;;;;5055833;28;20332;-80
2021/12/26 12:08:28;;;;;;;4.73;2.67;;;6.80;90.70;;;;;;5058088;28;20230;-80
2021/12/26 12:11:02;;;;;;;3.90;2.40;;;6.80;90.30;;;;;;5062662;28;20229;-80
2021/12/26 12:13:47;;;;;;;5.87;2.70;;;6.80;90.20;;;;;;5056217;28;20229;-80
2021/12/26 12:16:27;;;;;;;3.80;2.77;;;6.80;90.10;;;;;;5060017;28;20269;-80
2021/12/26 12:18:57;;;;;;;5.07;3.30;;;6.80;90.60;;;;;;5067152;28;20245;-80
2021/12/26 12:21:31;;;;;;;4.77;3.33;;;6.80;89.90;;;;;;5067078;28;20220;-80
2021/12/26 12:24:02;;;;;;;4.30;2.97;;;6.70;89.70;;;;;;5051943;28;20230;-80
2021/12/26 12:26:46;;;;;;;3.10;2.50;;;6.70;89.90;;;;;;5056222;28;20230;-79
2021/12/26 12:29:35;;;;;;;3.10;2.30;;;6.70;89.90;;;;;;5064736;28;20253;-80
2021/12/26 12:32:13;;;;;;;2.97;2.20;;;6.70;89.80;;;;;;5069242;28;20241;-80
2021/12/26 12:34:47;;;;;;;4.57;2.53;;;6.60;88.50;;;;;;5060433;28;20228;-80
2021/12/26 12:37:28;;;;;;;3.63;2.37;;;6.60;87.90;;;;;;5060339;28;20279;-80
2021/12/26 12:40:18;;;;;;;3.43;2.57;;;6.50;87.70;;;;;;5062321;28;20225;-80
2021/12/26 12:43:02;;;;;;;3.20;2.20;;;6.40;88.00;;;;;;5062771;28;20341;-80
2021/12/26 12:45:29;;;;;;;3.63;2.20;;;6.40;87.60;;;;;;5062562;28;20224;-80
2021/12/26 12:48:29;;;;;;;4.63;2.60;;;6.30;89.40;;;;;;5061433;28;20230;-80
2021/12/26 12:50:58;;;;;;;4.23;2.17;;;6.20;86.90;;;;;;5060006;28;20914;-80
2021/12/26 12:53:39;;;;;;;3.07;2.17;;;6.20;87.90;;;;;;5057968;28;20231;-80
2021/12/26 12:56:06;;;;;;;2.93;1.97;;;6.10;87.00;;;;;;5055775;28;20341;-80
2021/12/26 12:58:36;;;;;;;3.63;2.40;;;6.00;88.60;;;;;;5059724;28;20597;-80
2021/12/26 13:01:05;;;;;;;3.93;2.17;;;5.90;88.50;;;;;;5055246;28;20646;-80
2021/12/26 13:03:34;;;;;;;3.47;2.30;;;5.80;88.70;;;;;;5064697;28;20226;-80
2021/12/26 13:06:07;;;;;;;4.07;2.10;;;5.60;87.60;;;;;;5060531;28;20761;-80
2021/12/26 13:08:34;;;;;;;3.23;2.50;;;5.50;87.20;;;;;;5066705;28;20239;-80
2021/12/26 13:11:02;;;;;;;2.17;1.73;;;5.30;87.30;;;;;;5057627;28;20225;-80